UAE9U OMDB-VGHS
Flight info
| Callsign | UAE9U |
|---|---|
| Flight time | 3h 9m |
| Altitude | 37000 |
| Route | IVURO M428 TARBO Z440 DAMUM B524 ALPOR M504 TELEM A791 GOLOX/N0483F390 A791 CEA A462 DAC |
| Aircraft | B77W/H-SDE1E2E3FGHIJ2J3J4J5M1RWXY/LB1D1 |
Departure
| Time | 2026-04-26 02:08 |
|---|---|
| Airport | Dubai International Airport (OMDB) |
Arrival
| Time | 2026-04-26 05:17 |
|---|---|
| Airport | Hazrat Shahjalal International Airport (VGHS) |
| Time | Latitude | Longitude | Altitude | Speed | Heading |
|---|---|---|---|---|---|
| 2026-04-26 01:39 | 25.24807 | 55.36441 | 29 ft | 0 kts | 211° |
| 2026-04-26 01:57 | 25.24812 | 55.36445 | 30 ft | 4 kts | 211° |
| 2026-04-26 01:58 | 25.24835 | 55.36460 | 30 ft | 4 kts | 212° |
| 2026-04-26 01:58 | 25.24856 | 55.36479 | 32 ft | 4 kts | 233° |
| 2026-04-26 01:58 | 25.24868 | 55.36504 | 32 ft | 4 kts | 264° |
| 2026-04-26 01:58 | 25.24864 | 55.36529 | 32 ft | 2 kts | 302° |
| 2026-04-26 01:59 | 25.24864 | 55.36530 | 32 ft | 0 kts | 302° |
| 2026-04-26 02:00 | 25.24865 | 55.36529 | 32 ft | 2 kts | 302° |
| 2026-04-26 02:01 | 25.24896 | 55.36476 | 29 ft | 10 kts | 306° |
| 2026-04-26 02:01 | 25.24948 | 55.36423 | 28 ft | 10 kts | 328° |
| 2026-04-26 02:01 | 25.25009 | 55.36383 | 31 ft | 10 kts | 332° |
| 2026-04-26 02:01 | 25.25083 | 55.36323 | 27 ft | 15 kts | 308° |
| 2026-04-26 02:02 | 25.25141 | 55.36221 | 26 ft | 16 kts | 302° |
| 2026-04-26 02:02 | 25.25200 | 55.36118 | 29 ft | 16 kts | 302° |
| 2026-04-26 02:02 | 25.25258 | 55.36015 | 30 ft | 16 kts | 302° |
| 2026-04-26 02:02 | 25.25316 | 55.35912 | 29 ft | 16 kts | 302° |
| 2026-04-26 02:03 | 25.25375 | 55.35808 | 29 ft | 16 kts | 302° |
| 2026-04-26 02:03 | 25.25441 | 55.35690 | 32 ft | 22 kts | 301° |
| 2026-04-26 02:03 | 25.25521 | 55.35546 | 29 ft | 22 kts | 301° |
| 2026-04-26 02:03 | 25.25603 | 55.35401 | 27 ft | 22 kts | 302° |
| 2026-04-26 02:04 | 25.25685 | 55.35256 | 29 ft | 22 kts | 301° |
| 2026-04-26 02:04 | 25.25766 | 55.35109 | 29 ft | 22 kts | 300° |
| 2026-04-26 02:04 | 25.25846 | 55.34963 | 30 ft | 22 kts | 302° |
| 2026-04-26 02:04 | 25.25928 | 55.34817 | 29 ft | 22 kts | 302° |
| 2026-04-26 02:05 | 25.26009 | 55.34672 | 31 ft | 20 kts | 301° |
| 2026-04-26 02:05 | 25.26089 | 55.34626 | 29 ft | 13 kts | 31° |
| 2026-04-26 02:05 | 25.26150 | 55.34699 | 30 ft | 13 kts | 47° |
| 2026-04-26 02:05 | 25.26213 | 55.34767 | 26 ft | 13 kts | 34° |
| 2026-04-26 02:06 | 25.26289 | 55.34820 | 27 ft | 13 kts | 32° |
| 2026-04-26 02:06 | 25.26370 | 55.34854 | 28 ft | 13 kts | 346° |
| 2026-04-26 02:06 | 25.26425 | 55.34780 | 28 ft | 10 kts | 301° |
| 2026-04-26 02:06 | 25.26470 | 55.34766 | 28 ft | 6 kts | 21° |
| 2026-04-26 02:07 | 25.26510 | 55.34789 | 29 ft | 6 kts | 28° |
| 2026-04-26 02:07 | 25.26549 | 55.34814 | 29 ft | 7 kts | 31° |
| 2026-04-26 02:07 | 25.26560 | 55.34861 | 29 ft | 6 kts | 109° |
| 2026-04-26 02:07 | 25.26492 | 55.34990 | 29 ft | 37 kts | 121° |
| 2026-04-26 02:08 | 25.26222 | 55.35476 | 29 ft | 113 kts | 122° |
| 2026-04-26 02:08 | 25.25689 | 55.36434 | 30 ft | 177 kts | 121° |
| 2026-04-26 02:08 | 25.25002 | 55.37706 | 383 ft | 196 kts | 122° |
| 2026-04-26 02:08 | 25.24291 | 55.39000 | 1085 ft | 198 kts | 123° |
| 2026-04-26 02:09 | 25.23508 | 55.40299 | 1608 ft | 211 kts | 123° |
| 2026-04-26 02:09 | 25.22639 | 55.41696 | 1936 ft | 231 kts | 123° |
| 2026-04-26 02:09 | 25.21698 | 55.43215 | 2387 ft | 245 kts | 123° |
| 2026-04-26 02:09 | 25.20721 | 55.44780 | 3041 ft | 248 kts | 123° |
| 2026-04-26 02:10 | 25.20036 | 55.46501 | 3640 ft | 246 kts | 93° |
| 2026-04-26 02:10 | 25.20017 | 55.48382 | 4240 ft | 247 kts | 88° |
| 2026-04-26 02:10 | 25.19991 | 55.50300 | 4952 ft | 249 kts | 90° |
| 2026-04-26 02:10 | 25.19945 | 55.52213 | 5783 ft | 251 kts | 91° |
| 2026-04-26 02:11 | 25.19894 | 55.54151 | 6627 ft | 253 kts | 91° |
| 2026-04-26 02:11 | 25.19871 | 55.56081 | 7321 ft | 259 kts | 84° |
| 2026-04-26 02:11 | 25.20187 | 55.58139 | 7599 ft | 285 kts | 75° |
| 2026-04-26 02:11 | 25.20698 | 55.60313 | 8245 ft | 297 kts | 74° |
| 2026-04-26 02:12 | 25.21247 | 55.62552 | 9046 ft | 304 kts | 74° |
| 2026-04-26 02:12 | 25.21792 | 55.64823 | 9913 ft | 310 kts | 75° |
| 2026-04-26 02:12 | 25.22340 | 55.67172 | 10614 ft | 321 kts | 75° |
| 2026-04-26 02:12 | 25.22902 | 55.69636 | 10868 ft | 349 kts | 76° |
| 2026-04-26 02:13 | 25.23507 | 55.72338 | 11076 ft | 376 kts | 76° |
| 2026-04-26 02:13 | 25.24146 | 55.75238 | 11460 ft | 395 kts | 76° |
| 2026-04-26 02:13 | 25.24801 | 55.78240 | 12151 ft | 404 kts | 76° |
| 2026-04-26 02:13 | 25.25452 | 55.81242 | 13033 ft | 408 kts | 76° |
| 2026-04-26 02:14 | 25.26115 | 55.84310 | 13937 ft | 410 kts | 76° |
| 2026-04-26 02:14 | 25.26777 | 55.87371 | 14665 ft | 415 kts | 77° |
| 2026-04-26 02:14 | 25.27455 | 55.90508 | 15332 ft | 422 kts | 77° |
| 2026-04-26 02:14 | 25.28137 | 55.93671 | 16013 ft | 428 kts | 77° |
| 2026-04-26 02:15 | 25.28835 | 55.96912 | 16731 ft | 434 kts | 77° |
| 2026-04-26 02:15 | 25.29532 | 56.00152 | 17433 ft | 439 kts | 77° |
| 2026-04-26 02:15 | 25.30244 | 56.03469 | 18139 ft | 445 kts | 77° |
| 2026-04-26 02:15 | 25.30964 | 56.06823 | 18750 ft | 450 kts | 77° |
| 2026-04-26 02:16 | 25.31685 | 56.10195 | 19365 ft | 453 kts | 78° |
| 2026-04-26 02:16 | 25.32138 | 56.13677 | 19888 ft | 459 kts | 89° |
| 2026-04-26 02:16 | 25.31966 | 56.17170 | 20456 ft | 462 kts | 100° |
| 2026-04-26 02:16 | 25.31236 | 56.20657 | 21088 ft | 464 kts | 111° |
| 2026-04-26 02:17 | 25.30098 | 56.24016 | 21684 ft | 467 kts | 113° |
| 2026-04-26 02:17 | 25.28932 | 56.27359 | 22200 ft | 473 kts | 113° |
| 2026-04-26 02:17 | 25.27775 | 56.30762 | 22730 ft | 478 kts | 112° |
| 2026-04-26 02:17 | 25.26626 | 56.34240 | 23268 ft | 483 kts | 111° |
| 2026-04-26 02:18 | 25.25475 | 56.37774 | 23759 ft | 487 kts | 111° |
| 2026-04-26 02:18 | 25.24317 | 56.41309 | 24290 ft | 488 kts | 111° |
| 2026-04-26 02:18 | 25.23165 | 56.44802 | 24804 ft | 491 kts | 111° |
| 2026-04-26 02:18 | 25.21985 | 56.48368 | 25293 ft | 494 kts | 111° |
| 2026-04-26 02:19 | 25.20811 | 56.51917 | 25736 ft | 498 kts | 111° |
| 2026-04-26 02:19 | 25.19621 | 56.55515 | 26173 ft | 501 kts | 111° |
| 2026-04-26 02:19 | 25.18415 | 56.59145 | 26632 ft | 505 kts | 112° |
| 2026-04-26 02:19 | 25.17126 | 56.62762 | 26989 ft | 509 kts | 114° |
| 2026-04-26 02:20 | 25.15747 | 56.66399 | 27388 ft | 513 kts | 115° |
| 2026-04-26 02:20 | 25.14340 | 56.70030 | 27835 ft | 515 kts | 115° |
| 2026-04-26 02:20 | 25.12922 | 56.73682 | 28272 ft | 517 kts | 115° |
| 2026-04-26 02:20 | 25.11505 | 56.77355 | 28681 ft | 520 kts | 115° |
| 2026-04-26 02:21 | 25.10106 | 56.81012 | 29048 ft | 523 kts | 115° |
| 2026-04-26 02:21 | 25.08693 | 56.84728 | 29419 ft | 526 kts | 115° |
| 2026-04-26 02:21 | 25.07273 | 56.88474 | 29769 ft | 528 kts | 114° |
| 2026-04-26 02:21 | 25.05854 | 56.92223 | 30185 ft | 528 kts | 114° |
| 2026-04-26 02:22 | 25.04462 | 56.95901 | 30641 ft | 526 kts | 114° |
| 2026-04-26 02:22 | 25.03048 | 56.99628 | 31078 ft | 525 kts | 114° |
| 2026-04-26 02:22 | 25.01634 | 57.03351 | 31494 ft | 525 kts | 114° |
| 2026-04-26 02:22 | 25.00219 | 57.07070 | 31882 ft | 525 kts | 114° |
| 2026-04-26 02:23 | 24.98803 | 57.10787 | 32259 ft | 525 kts | 114° |
| 2026-04-26 02:23 | 24.97403 | 57.14457 | 32631 ft | 525 kts | 114° |
| 2026-04-26 02:23 | 24.95985 | 57.18173 | 33009 ft | 524 kts | 114° |
| 2026-04-26 02:23 | 24.94575 | 57.21864 | 33389 ft | 524 kts | 114° |
| 2026-04-26 02:24 | 24.93157 | 57.25571 | 33779 ft | 523 kts | 114° |
| 2026-04-26 02:24 | 24.91755 | 57.29236 | 34104 ft | 523 kts | 114° |
| 2026-04-26 02:24 | 24.90332 | 57.32952 | 34350 ft | 524 kts | 114° |
| 2026-04-26 02:24 | 24.88924 | 57.36625 | 34576 ft | 526 kts | 113° |
| 2026-04-26 02:25 | 24.87489 | 57.40366 | 34849 ft | 526 kts | 113° |
| 2026-04-26 02:25 | 24.86081 | 57.44032 | 35190 ft | 524 kts | 113° |
| 2026-04-26 02:25 | 24.84657 | 57.47738 | 35453 ft | 525 kts | 113° |
| 2026-04-26 02:25 | 24.83229 | 57.51452 | 35658 ft | 527 kts | 112° |
| 2026-04-26 02:26 | 24.81804 | 57.55155 | 35881 ft | 528 kts | 112° |
| 2026-04-26 02:26 | 24.80365 | 57.58889 | 36127 ft | 529 kts | 112° |
| 2026-04-26 02:26 | 24.78929 | 57.62613 | 36364 ft | 529 kts | 112° |
| 2026-04-26 02:26 | 24.77488 | 57.66348 | 36594 ft | 530 kts | 112° |
| 2026-04-26 02:27 | 24.76045 | 57.70086 | 36796 ft | 531 kts | 112° |
| 2026-04-26 02:27 | 24.73428 | 57.77695 | 36865 ft | 538 kts | 104° |
| 2026-04-26 02:28 | 24.71942 | 57.85806 | 36869 ft | 543 kts | 95° |
| 2026-04-26 02:28 | 24.70970 | 57.94080 | 36869 ft | 545 kts | 95° |
| 2026-04-26 02:29 | 24.69990 | 58.02272 | 36850 ft | 540 kts | 96° |
| 2026-04-26 02:29 | 24.69134 | 58.09096 | 36863 ft | 542 kts | 96° |
| 2026-04-26 02:30 | 24.67908 | 58.18646 | 36853 ft | 544 kts | 96° |
| 2026-04-26 02:30 | 24.67021 | 58.25521 | 36862 ft | 545 kts | 96° |
| 2026-04-26 02:31 | 24.65957 | 58.33762 | 36855 ft | 545 kts | 96° |
| 2026-04-26 02:31 | 24.64889 | 58.42006 | 36854 ft | 546 kts | 96° |
| 2026-04-26 02:32 | 24.63811 | 58.50292 | 36852 ft | 546 kts | 96° |
| 2026-04-26 02:32 | 24.62737 | 58.58519 | 36846 ft | 546 kts | 96° |
| 2026-04-26 02:33 | 24.61651 | 58.66790 | 36842 ft | 545 kts | 96° |
| 2026-04-26 02:33 | 24.60568 | 58.75008 | 36845 ft | 545 kts | 96° |
| 2026-04-26 02:34 | 24.59476 | 58.83261 | 36836 ft | 544 kts | 96° |
| 2026-04-26 02:34 | 24.58382 | 58.91491 | 36840 ft | 544 kts | 96° |
| 2026-04-26 02:35 | 24.57284 | 58.99717 | 36844 ft | 544 kts | 96° |
| 2026-04-26 02:35 | 24.56183 | 59.07926 | 36841 ft | 544 kts | 96° |
| 2026-04-26 02:36 | 24.55083 | 59.16105 | 36839 ft | 544 kts | 96° |
| 2026-04-26 02:36 | 24.53855 | 59.24331 | 36836 ft | 545 kts | 100° |
| 2026-04-26 02:37 | 24.52141 | 59.32395 | 36836 ft | 545 kts | 101° |
| 2026-04-26 02:37 | 24.50358 | 59.40511 | 36836 ft | 545 kts | 101° |
| 2026-04-26 02:38 | 24.48619 | 59.48555 | 36840 ft | 544 kts | 101° |
| 2026-04-26 02:38 | 24.46888 | 59.56649 | 36836 ft | 544 kts | 101° |
| 2026-04-26 02:39 | 24.45157 | 59.64733 | 36843 ft | 543 kts | 101° |
| 2026-04-26 02:39 | 24.43418 | 59.72819 | 36832 ft | 543 kts | 101° |
| 2026-04-26 02:40 | 24.41691 | 59.80824 | 36836 ft | 542 kts | 101° |
| 2026-04-26 02:40 | 24.39950 | 59.88868 | 36838 ft | 541 kts | 101° |
| 2026-04-26 02:41 | 24.38205 | 59.96910 | 36837 ft | 540 kts | 101° |
| 2026-04-26 02:41 | 24.36469 | 60.04896 | 36837 ft | 540 kts | 101° |
| 2026-04-26 02:42 | 24.34721 | 60.12905 | 36840 ft | 540 kts | 101° |
| 2026-04-26 02:42 | 24.32960 | 60.20914 | 36845 ft | 540 kts | 102° |
| 2026-04-26 02:43 | 24.30321 | 60.32876 | 36834 ft | 539 kts | 101° |
| 2026-04-26 02:43 | 24.28549 | 60.40887 | 36841 ft | 538 kts | 101° |
| 2026-04-26 02:44 | 24.26790 | 60.48822 | 36846 ft | 538 kts | 102° |
| 2026-04-26 02:44 | 24.25023 | 60.56770 | 36842 ft | 536 kts | 102° |
| 2026-04-26 02:45 | 24.23253 | 60.64716 | 36841 ft | 535 kts | 102° |
| 2026-04-26 02:45 | 24.21487 | 60.72624 | 36842 ft | 535 kts | 102° |
| 2026-04-26 02:46 | 24.19718 | 60.80524 | 36845 ft | 534 kts | 102° |
| 2026-04-26 02:46 | 24.17946 | 60.88423 | 36837 ft | 534 kts | 102° |
| 2026-04-26 02:47 | 24.16166 | 60.96339 | 36834 ft | 534 kts | 102° |
| 2026-04-26 02:47 | 24.14393 | 61.04209 | 36844 ft | 533 kts | 102° |
| 2026-04-26 02:48 | 24.12616 | 61.12075 | 36846 ft | 532 kts | 102° |
| 2026-04-26 02:48 | 24.10839 | 61.19921 | 36850 ft | 532 kts | 102° |
| 2026-04-26 02:49 | 24.09060 | 61.27764 | 36843 ft | 531 kts | 102° |
| 2026-04-26 02:49 | 24.07581 | 61.35671 | 36843 ft | 529 kts | 94° |
| 2026-04-26 02:50 | 24.07089 | 61.43708 | 36854 ft | 527 kts | 91° |
| 2026-04-26 02:50 | 24.06683 | 61.51688 | 36853 ft | 527 kts | 91° |
| 2026-04-26 02:51 | 24.06236 | 61.59675 | 36849 ft | 527 kts | 91° |
| 2026-04-26 02:51 | 24.05753 | 61.67692 | 36854 ft | 527 kts | 91° |
| 2026-04-26 02:52 | 24.05260 | 61.75688 | 36843 ft | 527 kts | 91° |
| 2026-04-26 02:52 | 24.04766 | 61.83663 | 36854 ft | 527 kts | 91° |
| 2026-04-26 02:53 | 24.04268 | 61.91671 | 36854 ft | 526 kts | 91° |
| 2026-04-26 02:53 | 24.03772 | 61.99606 | 36853 ft | 525 kts | 92° |
| 2026-04-26 02:54 | 24.03270 | 62.07558 | 36850 ft | 524 kts | 92° |
| 2026-04-26 02:54 | 24.02763 | 62.15524 | 36852 ft | 523 kts | 92° |
| 2026-04-26 02:55 | 24.02256 | 62.23419 | 36858 ft | 522 kts | 92° |
| 2026-04-26 02:55 | 24.01743 | 62.31351 | 36854 ft | 522 kts | 92° |
| 2026-04-26 02:56 | 24.01227 | 62.39265 | 36855 ft | 522 kts | 92° |
| 2026-04-26 02:56 | 24.00708 | 62.47164 | 36859 ft | 522 kts | 92° |
| 2026-04-26 02:57 | 24.00183 | 62.55078 | 36858 ft | 522 kts | 93° |
| 2026-04-26 02:57 | 23.99653 | 62.63018 | 36858 ft | 522 kts | 93° |
| 2026-04-26 02:58 | 23.99120 | 62.70939 | 36855 ft | 523 kts | 93° |
| 2026-04-26 02:58 | 23.98582 | 62.78871 | 36855 ft | 523 kts | 93° |
| 2026-04-26 02:59 | 23.98041 | 62.86791 | 36860 ft | 523 kts | 93° |
| 2026-04-26 02:59 | 23.97496 | 62.94706 | 36860 ft | 523 kts | 93° |
| 2026-04-26 03:00 | 23.96947 | 63.02619 | 36861 ft | 522 kts | 93° |
| 2026-04-26 03:00 | 23.96395 | 63.10520 | 36866 ft | 522 kts | 93° |
| 2026-04-26 03:01 | 23.95837 | 63.18455 | 36869 ft | 522 kts | 93° |
| 2026-04-26 03:01 | 23.95275 | 63.26373 | 36857 ft | 522 kts | 93° |
| 2026-04-26 03:02 | 23.94711 | 63.34262 | 36864 ft | 521 kts | 93° |
| 2026-04-26 03:02 | 23.94144 | 63.42146 | 36865 ft | 521 kts | 93° |
| 2026-04-26 03:03 | 23.93572 | 63.50047 | 36863 ft | 521 kts | 93° |
| 2026-04-26 03:03 | 23.92997 | 63.57920 | 36864 ft | 520 kts | 94° |
| 2026-04-26 03:04 | 23.92418 | 63.65794 | 36866 ft | 520 kts | 94° |
| 2026-04-26 03:04 | 23.91832 | 63.73713 | 36867 ft | 520 kts | 94° |
| 2026-04-26 03:05 | 23.91249 | 63.81528 | 36871 ft | 519 kts | 94° |
| 2026-04-26 03:05 | 23.90660 | 63.89379 | 36864 ft | 518 kts | 94° |
| 2026-04-26 03:06 | 23.90065 | 63.97257 | 36870 ft | 517 kts | 94° |
| 2026-04-26 03:06 | 23.89472 | 64.05056 | 36878 ft | 516 kts | 94° |
| 2026-04-26 03:07 | 23.88874 | 64.12861 | 36866 ft | 515 kts | 94° |
| 2026-04-26 03:07 | 23.88274 | 64.20641 | 36868 ft | 514 kts | 94° |
| 2026-04-26 03:08 | 23.87672 | 64.28402 | 36872 ft | 514 kts | 94° |
| 2026-04-26 03:08 | 23.87064 | 64.36177 | 36868 ft | 514 kts | 94° |
| 2026-04-26 03:09 | 23.86452 | 64.43965 | 36875 ft | 515 kts | 94° |
| 2026-04-26 03:09 | 23.85833 | 64.51790 | 36872 ft | 515 kts | 94° |
| 2026-04-26 03:10 | 23.85214 | 64.59565 | 36876 ft | 515 kts | 94° |
| 2026-04-26 03:10 | 23.84589 | 64.67361 | 36868 ft | 516 kts | 94° |
| 2026-04-26 03:11 | 23.83959 | 64.75174 | 36873 ft | 516 kts | 94° |
| 2026-04-26 03:11 | 23.83340 | 64.82937 | 36872 ft | 516 kts | 93° |
| 2026-04-26 03:12 | 23.83260 | 64.90747 | 36875 ft | 515 kts | 88° |
| 2026-04-26 03:12 | 23.83359 | 64.98571 | 36873 ft | 515 kts | 88° |
| 2026-04-26 03:13 | 23.83441 | 65.06371 | 36866 ft | 515 kts | 89° |
| 2026-04-26 03:13 | 23.83490 | 65.14196 | 36868 ft | 515 kts | 89° |
| 2026-04-26 03:14 | 23.83524 | 65.22060 | 36862 ft | 516 kts | 89° |
| 2026-04-26 03:14 | 23.83555 | 65.29878 | 36872 ft | 515 kts | 89° |
| 2026-04-26 03:15 | 23.83583 | 65.37688 | 36866 ft | 515 kts | 89° |
| 2026-04-26 03:15 | 23.83609 | 65.45542 | 36872 ft | 515 kts | 89° |
| 2026-04-26 03:16 | 23.83630 | 65.53361 | 36874 ft | 515 kts | 89° |
| 2026-04-26 03:16 | 23.83647 | 65.61187 | 36871 ft | 515 kts | 89° |
| 2026-04-26 03:17 | 23.83661 | 65.68995 | 36867 ft | 516 kts | 89° |
| 2026-04-26 03:17 | 23.83670 | 65.76812 | 36867 ft | 516 kts | 90° |
| 2026-04-26 03:18 | 23.83676 | 65.84645 | 36872 ft | 516 kts | 90° |
| 2026-04-26 03:18 | 23.83677 | 65.92496 | 36869 ft | 516 kts | 90° |
| 2026-04-26 03:19 | 23.83675 | 66.00311 | 36868 ft | 516 kts | 90° |
| 2026-04-26 03:19 | 23.83669 | 66.08161 | 36872 ft | 516 kts | 90° |
| 2026-04-26 03:20 | 23.83658 | 66.15974 | 36864 ft | 516 kts | 90° |
| 2026-04-26 03:20 | 23.83644 | 66.23822 | 36870 ft | 516 kts | 90° |
| 2026-04-26 03:21 | 23.83626 | 66.31667 | 36868 ft | 516 kts | 90° |
| 2026-04-26 03:21 | 23.83604 | 66.39477 | 36865 ft | 516 kts | 90° |
| 2026-04-26 03:22 | 23.83578 | 66.47295 | 36871 ft | 515 kts | 90° |
| 2026-04-26 03:22 | 23.83553 | 66.53819 | 36865 ft | 515 kts | 90° |
| 2026-04-26 03:23 | 23.83520 | 66.61672 | 36875 ft | 515 kts | 90° |
| 2026-04-26 03:23 | 23.83483 | 66.69455 | 36862 ft | 515 kts | 90° |
| 2026-04-26 03:24 | 23.83441 | 66.77272 | 36865 ft | 515 kts | 90° |
| 2026-04-26 03:24 | 23.83396 | 66.85111 | 36867 ft | 515 kts | 90° |
| 2026-04-26 03:25 | 23.83348 | 66.92914 | 36871 ft | 515 kts | 90° |
| 2026-04-26 03:25 | 23.83466 | 67.00760 | 36866 ft | 515 kts | 85° |
| 2026-04-26 03:26 | 23.84598 | 67.08457 | 36870 ft | 513 kts | 79° |
| 2026-04-26 03:26 | 23.85933 | 67.16081 | 36862 ft | 513 kts | 79° |
| 2026-04-26 03:27 | 23.87238 | 67.23726 | 36862 ft | 512 kts | 79° |
| 2026-04-26 03:27 | 23.88506 | 67.31377 | 36861 ft | 512 kts | 79° |
| 2026-04-26 03:28 | 23.89763 | 67.39045 | 36862 ft | 512 kts | 79° |
| 2026-04-26 03:28 | 23.91016 | 67.46709 | 36854 ft | 512 kts | 79° |
| 2026-04-26 03:29 | 23.92267 | 67.54368 | 36851 ft | 513 kts | 79° |
| 2026-04-26 03:29 | 23.93522 | 67.62081 | 36856 ft | 513 kts | 79° |
| 2026-04-26 03:30 | 23.94770 | 67.69770 | 36853 ft | 514 kts | 79° |
| 2026-04-26 03:30 | 23.96013 | 67.77455 | 36853 ft | 515 kts | 79° |
| 2026-04-26 03:31 | 23.97255 | 67.85157 | 36854 ft | 515 kts | 79° |
| 2026-04-26 03:31 | 23.98494 | 67.92867 | 36849 ft | 516 kts | 79° |
| 2026-04-26 03:32 | 23.99728 | 68.00573 | 36850 ft | 516 kts | 79° |
| 2026-04-26 03:32 | 24.00968 | 68.08341 | 36849 ft | 516 kts | 79° |
| 2026-04-26 03:33 | 24.02192 | 68.16038 | 36849 ft | 516 kts | 79° |
| 2026-04-26 03:33 | 24.03415 | 68.23749 | 36845 ft | 516 kts | 79° |
| 2026-04-26 03:34 | 24.04643 | 68.31520 | 36845 ft | 516 kts | 79° |
| 2026-04-26 03:34 | 24.05857 | 68.39228 | 36844 ft | 516 kts | 79° |
| 2026-04-26 03:35 | 24.07067 | 68.46936 | 36843 ft | 516 kts | 79° |
| 2026-04-26 03:35 | 24.08277 | 68.54673 | 36848 ft | 516 kts | 79° |
| 2026-04-26 03:36 | 24.09480 | 68.62388 | 36848 ft | 515 kts | 80° |
| 2026-04-26 03:36 | 24.10688 | 68.70163 | 36846 ft | 515 kts | 80° |
| 2026-04-26 03:37 | 24.11687 | 68.77870 | 36842 ft | 515 kts | 86° |
| 2026-04-26 03:37 | 24.11680 | 68.85726 | 36851 ft | 514 kts | 91° |
| 2026-04-26 03:38 | 24.11500 | 68.93515 | 36855 ft | 514 kts | 91° |
| 2026-04-26 03:38 | 24.11347 | 69.01338 | 36850 ft | 514 kts | 91° |
| 2026-04-26 03:39 | 24.11223 | 69.09160 | 36855 ft | 514 kts | 90° |
| 2026-04-26 03:39 | 24.11104 | 69.16966 | 36855 ft | 514 kts | 90° |
| 2026-04-26 03:40 | 24.10981 | 69.24796 | 36849 ft | 515 kts | 91° |
| 2026-04-26 03:40 | 24.10850 | 69.32655 | 36849 ft | 515 kts | 91° |
| 2026-04-26 03:41 | 24.10715 | 69.40481 | 36855 ft | 515 kts | 91° |
| 2026-04-26 03:41 | 24.10576 | 69.48311 | 36852 ft | 515 kts | 91° |
| 2026-04-26 03:42 | 24.10433 | 69.56136 | 36856 ft | 515 kts | 91° |
| 2026-04-26 03:42 | 24.10287 | 69.63967 | 36860 ft | 515 kts | 91° |
| 2026-04-26 03:43 | 24.10135 | 69.71854 | 36858 ft | 515 kts | 91° |
| 2026-04-26 03:43 | 24.09980 | 69.79675 | 36855 ft | 515 kts | 91° |
| 2026-04-26 03:44 | 24.09821 | 69.87513 | 36857 ft | 515 kts | 91° |
| 2026-04-26 03:44 | 24.09658 | 69.95355 | 36853 ft | 515 kts | 91° |
| 2026-04-26 03:45 | 24.09492 | 70.03156 | 36855 ft | 515 kts | 91° |
| 2026-04-26 03:45 | 24.09321 | 70.10996 | 36853 ft | 515 kts | 91° |
| 2026-04-26 03:46 | 24.09146 | 70.18835 | 36855 ft | 515 kts | 91° |
| 2026-04-26 03:47 | 24.08877 | 70.30556 | 36854 ft | 515 kts | 91° |
| 2026-04-26 03:47 | 24.08692 | 70.38389 | 36862 ft | 515 kts | 91° |
| 2026-04-26 03:48 | 24.08503 | 70.46230 | 36858 ft | 515 kts | 91° |
| 2026-04-26 03:48 | 24.08311 | 70.54048 | 36859 ft | 515 kts | 91° |
| 2026-04-26 03:49 | 24.08114 | 70.61868 | 36858 ft | 515 kts | 91° |
| 2026-04-26 03:49 | 24.07913 | 70.69706 | 36858 ft | 515 kts | 91° |
| 2026-04-26 03:50 | 24.07708 | 70.77557 | 36858 ft | 515 kts | 91° |
| 2026-04-26 03:50 | 24.07499 | 70.85399 | 36860 ft | 515 kts | 91° |
| 2026-04-26 03:51 | 24.07288 | 70.93199 | 36864 ft | 515 kts | 91° |
| 2026-04-26 03:51 | 24.07071 | 71.01044 | 36864 ft | 515 kts | 91° |
| 2026-04-26 03:52 | 24.06851 | 71.08887 | 36850 ft | 515 kts | 91° |
| 2026-04-26 03:52 | 24.06630 | 71.16675 | 36853 ft | 515 kts | 91° |
| 2026-04-26 03:53 | 24.06403 | 71.24537 | 36860 ft | 515 kts | 91° |
| 2026-04-26 03:53 | 24.06174 | 71.32311 | 36848 ft | 515 kts | 91° |
| 2026-04-26 03:54 | 24.05940 | 71.40149 | 36844 ft | 515 kts | 91° |
| 2026-04-26 03:54 | 24.05702 | 71.47958 | 36848 ft | 515 kts | 92° |
| 2026-04-26 03:55 | 24.05460 | 71.55781 | 36850 ft | 515 kts | 92° |
| 2026-04-26 03:55 | 24.05213 | 71.63633 | 36841 ft | 514 kts | 92° |
| 2026-04-26 03:56 | 24.04949 | 71.71878 | 36841 ft | 514 kts | 92° |
| 2026-04-26 03:56 | 24.04192 | 71.94817 | 36837 ft | 514 kts | 92° |
| 2026-04-26 03:57 | 24.03746 | 72.07889 | 36838 ft | 515 kts | 92° |
| 2026-04-26 03:57 | 24.03197 | 72.23535 | 36841 ft | 515 kts | 92° |
| 2026-04-26 03:58 | 24.02636 | 72.39075 | 36843 ft | 515 kts | 92° |
| 2026-04-26 03:58 | 24.02053 | 72.54780 | 36855 ft | 515 kts | 92° |
| 2026-04-26 03:59 | 24.01584 | 72.70422 | 36854 ft | 515 kts | 89° |
| 2026-04-26 03:59 | 24.01790 | 72.83111 | 36961 ft | 513 kts | 88° |
| 2026-04-26 04:00 | 24.01941 | 72.92702 | 36919 ft | 515 kts | 89° |
| 2026-04-26 04:00 | 24.02074 | 73.03936 | 36890 ft | 516 kts | 89° |
| 2026-04-26 04:01 | 24.02165 | 73.12343 | 36882 ft | 516 kts | 89° |
| 2026-04-26 04:01 | 24.02249 | 73.20260 | 36864 ft | 516 kts | 89° |
| 2026-04-26 04:02 | 24.02392 | 73.34690 | 36869 ft | 516 kts | 89° |
| 2026-04-26 04:02 | 24.02532 | 73.50363 | 36870 ft | 516 kts | 89° |
| 2026-04-26 04:03 | 24.02657 | 73.66058 | 36880 ft | 515 kts | 89° |
| 2026-04-26 04:03 | 24.02763 | 73.81718 | 36888 ft | 515 kts | 89° |
| 2026-04-26 04:04 | 24.02849 | 73.97358 | 36887 ft | 516 kts | 89° |
| 2026-04-26 04:04 | 24.02946 | 74.13091 | 36898 ft | 515 kts | 89° |
| 2026-04-26 04:05 | 24.03178 | 74.28730 | 36903 ft | 515 kts | 89° |
| 2026-04-26 04:05 | 24.03374 | 74.44433 | 36908 ft | 516 kts | 89° |
| 2026-04-26 04:06 | 24.03551 | 74.60094 | 36916 ft | 516 kts | 89° |
| 2026-04-26 04:06 | 24.03278 | 74.74332 | 36911 ft | 516 kts | 98° |
| 2026-04-26 04:07 | 23.99540 | 74.89469 | 36923 ft | 516 kts | 108° |
| 2026-04-26 04:07 | 23.95261 | 75.04397 | 36920 ft | 516 kts | 107° |
| 2026-04-26 04:08 | 23.91024 | 75.19423 | 36931 ft | 518 kts | 108° |
| 2026-04-26 04:08 | 23.86737 | 75.34541 | 36931 ft | 520 kts | 108° |
| 2026-04-26 04:09 | 23.82447 | 75.49604 | 36920 ft | 522 kts | 108° |
| 2026-04-26 04:09 | 23.78127 | 75.64712 | 36933 ft | 523 kts | 108° |
| 2026-04-26 04:10 | 23.73758 | 75.79931 | 36931 ft | 523 kts | 108° |
| 2026-04-26 04:10 | 23.69394 | 75.95074 | 36925 ft | 524 kts | 109° |
| 2026-04-26 04:11 | 23.65008 | 76.10157 | 36915 ft | 523 kts | 109° |
| 2026-04-26 04:11 | 23.60581 | 76.25247 | 36910 ft | 523 kts | 109° |
| 2026-04-26 04:12 | 23.56141 | 76.40343 | 36906 ft | 523 kts | 109° |
| 2026-04-26 04:12 | 23.51659 | 76.55526 | 36903 ft | 523 kts | 109° |
| 2026-04-26 04:13 | 23.47195 | 76.70588 | 36888 ft | 524 kts | 110° |
| 2026-04-26 04:13 | 23.42713 | 76.85645 | 36895 ft | 525 kts | 110° |
| 2026-04-26 04:14 | 23.38193 | 77.00778 | 36881 ft | 527 kts | 110° |
| 2026-04-26 04:14 | 23.33653 | 77.15918 | 36886 ft | 528 kts | 110° |
| 2026-04-26 04:15 | 23.29836 | 77.28612 | 36873 ft | 529 kts | 110° |
| 2026-04-26 04:15 | 23.27959 | 77.39086 | 36832 ft | 536 kts | 95° |
| 2026-04-26 04:15 | 23.27743 | 77.44505 | 36847 ft | 536 kts | 94° |
| 2026-04-26 04:16 | 23.27203 | 77.60702 | 36853 ft | 537 kts | 94° |
| 2026-04-26 04:16 | 23.26520 | 77.76945 | 36846 ft | 540 kts | 95° |
| 2026-04-26 04:17 | 23.25807 | 77.93380 | 36876 ft | 549 kts | 95° |
| 2026-04-26 04:17 | 23.25070 | 78.10173 | 36840 ft | 557 kts | 95° |
| 2026-04-26 04:18 | 23.24310 | 78.27018 | 36870 ft | 557 kts | 95° |
| 2026-04-26 04:18 | 23.23655 | 78.41238 | 36866 ft | 548 kts | 95° |
| 2026-04-26 04:19 | 23.22959 | 78.56034 | 36841 ft | 544 kts | 95° |
| 2026-04-26 04:19 | 23.22168 | 78.72494 | 36856 ft | 549 kts | 95° |
| 2026-04-26 04:20 | 23.21821 | 78.89168 | 36860 ft | 556 kts | 92° |
| 2026-04-26 04:20 | 23.21616 | 79.06094 | 36885 ft | 559 kts | 93° |
| 2026-04-26 04:21 | 23.21323 | 79.22929 | 36942 ft | 559 kts | 93° |
| 2026-04-26 04:21 | 23.21163 | 79.32040 | 36962 ft | 559 kts | 93° |
| 2026-04-26 04:22 | 23.20920 | 79.45301 | 36921 ft | 558 kts | 93° |
| 2026-04-26 04:22 | 23.20635 | 79.59364 | 36855 ft | 559 kts | 94° |
| 2026-04-26 04:23 | 23.20026 | 79.73403 | 36864 ft | 556 kts | 95° |
| 2026-04-26 04:23 | 23.19291 | 79.90177 | 36876 ft | 556 kts | 95° |
| 2026-04-26 04:24 | 23.18563 | 80.06934 | 36887 ft | 556 kts | 95° |
| 2026-04-26 04:24 | 23.17706 | 80.23699 | 36883 ft | 557 kts | 95° |
| 2026-04-26 04:25 | 23.16824 | 80.40477 | 36886 ft | 559 kts | 95° |
| 2026-04-26 04:25 | 23.16021 | 80.55622 | 36943 ft | 559 kts | 95° |
| 2026-04-26 04:26 | 23.15361 | 80.67847 | 36926 ft | 562 kts | 95° |
| 2026-04-26 04:26 | 23.14607 | 80.81648 | 36854 ft | 567 kts | 95° |
| 2026-04-26 04:27 | 23.13667 | 80.98774 | 36863 ft | 570 kts | 95° |
| 2026-04-26 04:27 | 23.12868 | 81.13087 | 36855 ft | 572 kts | 96° |
| 2026-04-26 04:28 | 23.11879 | 81.30443 | 36855 ft | 573 kts | 96° |
| 2026-04-26 04:28 | 23.11093 | 81.44030 | 36884 ft | 573 kts | 96° |
| 2026-04-26 04:29 | 23.10594 | 81.52555 | 36911 ft | 572 kts | 96° |
| 2026-04-26 04:29 | 23.10086 | 81.61138 | 36905 ft | 569 kts | 96° |
| 2026-04-26 04:30 | 23.09577 | 81.69676 | 36934 ft | 570 kts | 96° |
| 2026-04-26 04:30 | 23.09315 | 81.74023 | 37125 ft | 571 kts | 96° |
| 2026-04-26 04:30 | 23.09058 | 81.78274 | 37398 ft | 569 kts | 96° |
| 2026-04-26 04:30 | 23.08798 | 81.82571 | 37700 ft | 568 kts | 96° |
| 2026-04-26 04:31 | 23.08537 | 81.86857 | 37991 ft | 566 kts | 96° |
| 2026-04-26 04:31 | 23.08278 | 81.91102 | 38250 ft | 565 kts | 96° |
| 2026-04-26 04:31 | 23.08015 | 81.95376 | 38475 ft | 565 kts | 96° |
| 2026-04-26 04:31 | 23.07755 | 81.99590 | 38729 ft | 563 kts | 96° |
| 2026-04-26 04:32 | 23.07491 | 82.03848 | 38813 ft | 559 kts | 96° |
| 2026-04-26 04:32 | 23.06979 | 82.12090 | 38829 ft | 544 kts | 96° |
| 2026-04-26 04:33 | 23.06484 | 82.20356 | 38850 ft | 550 kts | 95° |
| 2026-04-26 04:33 | 23.05882 | 82.34837 | 38850 ft | 566 kts | 95° |
| 2026-04-26 04:34 | 23.05234 | 82.50109 | 38830 ft | 577 kts | 95° |
| 2026-04-26 04:34 | 23.04437 | 82.67560 | 38831 ft | 579 kts | 95° |
| 2026-04-26 04:35 | 23.03635 | 82.84867 | 38824 ft | 571 kts | 95° |
| 2026-04-26 04:35 | 23.02820 | 83.02034 | 38890 ft | 564 kts | 95° |
| 2026-04-26 04:36 | 23.01995 | 83.18963 | 38857 ft | 566 kts | 95° |
| 2026-04-26 04:36 | 23.01138 | 83.36188 | 38907 ft | 573 kts | 95° |
| 2026-04-26 04:37 | 23.00262 | 83.53444 | 38882 ft | 579 kts | 95° |
| 2026-04-26 04:37 | 22.99357 | 83.70917 | 38893 ft | 581 kts | 95° |
| 2026-04-26 04:38 | 22.98431 | 83.88393 | 38895 ft | 572 kts | 95° |
| 2026-04-26 04:38 | 22.97539 | 84.04898 | 38938 ft | 566 kts | 95° |
| 2026-04-26 04:39 | 22.96559 | 84.21181 | 38862 ft | 567 kts | 96° |
| 2026-04-26 04:39 | 22.95475 | 84.35600 | 38922 ft | 573 kts | 96° |
| 2026-04-26 04:40 | 22.94198 | 84.53047 | 38950 ft | 581 kts | 96° |
| 2026-04-26 04:40 | 22.92913 | 84.70464 | 38935 ft | 579 kts | 96° |
| 2026-04-26 04:41 | 22.91614 | 84.87767 | 38929 ft | 572 kts | 96° |
| 2026-04-26 04:41 | 22.90313 | 85.04838 | 38913 ft | 567 kts | 96° |
| 2026-04-26 04:42 | 22.88999 | 85.21863 | 38915 ft | 568 kts | 96° |
| 2026-04-26 04:42 | 22.87655 | 85.39056 | 38915 ft | 575 kts | 96° |
| 2026-04-26 04:43 | 22.86282 | 85.56392 | 38884 ft | 580 kts | 96° |
| 2026-04-26 04:43 | 22.84914 | 85.73435 | 38859 ft | 582 kts | 96° |
| 2026-04-26 04:44 | 22.83569 | 85.89975 | 38890 ft | 581 kts | 96° |
| 2026-04-26 04:44 | 22.82411 | 86.04043 | 38794 ft | 574 kts | 96° |
| 2026-04-26 04:44 | 22.81713 | 86.12459 | 38789 ft | 561 kts | 97° |
| 2026-04-26 04:45 | 22.81036 | 86.20933 | 38818 ft | 557 kts | 95° |
| 2026-04-26 04:45 | 22.80195 | 86.37680 | 38854 ft | 554 kts | 94° |
| 2026-04-26 04:46 | 22.79317 | 86.54348 | 38860 ft | 558 kts | 95° |
| 2026-04-26 04:46 | 22.78375 | 86.71169 | 38865 ft | 565 kts | 94° |
| 2026-04-26 04:47 | 22.77493 | 86.86786 | 38831 ft | 569 kts | 94° |
| 2026-04-26 04:47 | 22.76644 | 87.01562 | 38885 ft | 565 kts | 94° |
| 2026-04-26 04:48 | 22.75397 | 87.22855 | 38807 ft | 553 kts | 95° |
| 2026-04-26 04:48 | 22.74392 | 87.39614 | 38822 ft | 560 kts | 95° |
| 2026-04-26 04:49 | 22.73365 | 87.56495 | 38802 ft | 569 kts | 95° |
| 2026-04-26 04:49 | 22.72302 | 87.73665 | 38816 ft | 570 kts | 95° |
| 2026-04-26 04:50 | 22.71227 | 87.90729 | 38798 ft | 562 kts | 95° |
| 2026-04-26 04:50 | 22.70158 | 88.07419 | 38811 ft | 556 kts | 95° |
| 2026-04-26 04:51 | 22.69066 | 88.24177 | 38822 ft | 559 kts | 95° |
| 2026-04-26 04:51 | 22.68232 | 88.36857 | 38908 ft | 564 kts | 94° |
| 2026-04-26 04:52 | 22.68968 | 88.45152 | 38856 ft | 562 kts | 73° |
| 2026-04-26 04:52 | 22.70833 | 88.50745 | 38825 ft | 555 kts | 59° |
| 2026-04-26 04:52 | 22.78271 | 88.63794 | 37542 ft | 556 kts | 53° |
| 2026-04-26 04:53 | 22.82295 | 88.70938 | 35937 ft | 555 kts | 53° |
| 2026-04-26 04:53 | 22.84840 | 88.75531 | 34679 ft | 558 kts | 53° |
| 2026-04-26 04:53 | 22.86860 | 88.79177 | 33455 ft | 566 kts | 53° |
| 2026-04-26 04:53 | 22.88898 | 88.82855 | 32263 ft | 571 kts | 53° |
| 2026-04-26 04:54 | 22.90949 | 88.86556 | 31115 ft | 573 kts | 54° |
| 2026-04-26 04:54 | 22.92969 | 88.90202 | 30332 ft | 568 kts | 54° |
| 2026-04-26 04:54 | 22.95040 | 88.93821 | 29558 ft | 560 kts | 52° |
| 2026-04-26 04:54 | 22.97157 | 88.97341 | 28774 ft | 552 kts | 51° |
| 2026-04-26 04:55 | 22.99280 | 89.00791 | 28017 ft | 544 kts | 51° |
| 2026-04-26 04:55 | 23.01375 | 89.04185 | 27328 ft | 536 kts | 52° |
| 2026-04-26 04:55 | 23.03436 | 89.07540 | 26677 ft | 529 kts | 52° |
| 2026-04-26 04:55 | 23.05449 | 89.10847 | 26023 ft | 522 kts | 52° |
| 2026-04-26 04:56 | 23.07413 | 89.14092 | 25374 ft | 516 kts | 53° |
| 2026-04-26 04:56 | 23.09367 | 89.17336 | 24728 ft | 510 kts | 53° |
| 2026-04-26 04:56 | 23.11300 | 89.20552 | 24074 ft | 505 kts | 53° |
| 2026-04-26 04:56 | 23.13211 | 89.23734 | 23438 ft | 500 kts | 54° |
| 2026-04-26 04:57 | 23.15105 | 89.26887 | 22687 ft | 494 kts | 54° |
| 2026-04-26 04:57 | 23.16966 | 89.29989 | 22030 ft | 487 kts | 54° |
| 2026-04-26 04:57 | 23.18810 | 89.33062 | 21405 ft | 480 kts | 54° |
| 2026-04-26 04:57 | 23.20601 | 89.36049 | 20801 ft | 474 kts | 54° |
| 2026-04-26 04:58 | 23.22388 | 89.39029 | 20206 ft | 468 kts | 54° |
| 2026-04-26 04:58 | 23.24159 | 89.41983 | 19614 ft | 462 kts | 54° |
| 2026-04-26 04:58 | 23.25912 | 89.44910 | 19019 ft | 457 kts | 54° |
| 2026-04-26 04:58 | 23.27636 | 89.47789 | 18431 ft | 453 kts | 54° |
| 2026-04-26 04:59 | 23.29325 | 89.50612 | 17807 ft | 448 kts | 54° |
| 2026-04-26 04:59 | 23.31016 | 89.53441 | 17169 ft | 443 kts | 54° |
| 2026-04-26 04:59 | 23.32687 | 89.56240 | 16589 ft | 438 kts | 54° |
| 2026-04-26 04:59 | 23.34338 | 89.59005 | 16023 ft | 433 kts | 54° |
| 2026-04-26 05:00 | 23.35972 | 89.61741 | 15446 ft | 428 kts | 54° |
| 2026-04-26 05:00 | 23.37606 | 89.64428 | 14893 ft | 421 kts | 50° |
| 2026-04-26 05:00 | 23.39588 | 89.66699 | 14327 ft | 408 kts | 35° |
| 2026-04-26 05:00 | 23.41814 | 89.68577 | 13790 ft | 403 kts | 33° |
| 2026-04-26 05:01 | 23.43999 | 89.70421 | 13195 ft | 402 kts | 33° |
| 2026-04-26 05:01 | 23.46174 | 89.72325 | 12591 ft | 400 kts | 34° |
| 2026-04-26 05:01 | 23.48316 | 89.74251 | 12016 ft | 397 kts | 35° |
| 2026-04-26 05:01 | 23.50435 | 89.76171 | 11438 ft | 393 kts | 35° |
| 2026-04-26 05:02 | 23.52646 | 89.77756 | 10850 ft | 382 kts | 19° |
| 2026-04-26 05:02 | 23.55116 | 89.78416 | 10738 ft | 352 kts | 6° |
| 2026-04-26 05:02 | 23.57476 | 89.78975 | 10594 ft | 343 kts | 8° |
| 2026-04-26 05:02 | 23.59730 | 89.79590 | 10438 ft | 333 kts | 9° |
| 2026-04-26 05:03 | 23.61945 | 89.80211 | 10307 ft | 323 kts | 9° |
| 2026-04-26 05:03 | 23.64098 | 89.80811 | 10168 ft | 313 kts | 9° |
| 2026-04-26 05:03 | 23.66187 | 89.81388 | 10040 ft | 304 kts | 8° |
| 2026-04-26 05:03 | 23.68209 | 89.81942 | 9913 ft | 295 kts | 8° |
| 2026-04-26 05:04 | 23.70178 | 89.82481 | 9720 ft | 289 kts | 8° |
| 2026-04-26 05:04 | 23.72106 | 89.83006 | 9403 ft | 288 kts | 8° |
| 2026-04-26 05:04 | 23.74047 | 89.83535 | 9075 ft | 287 kts | 8° |
| 2026-04-26 05:04 | 23.75922 | 89.84236 | 8861 ft | 286 kts | 27° |
| 2026-04-26 05:05 | 23.77505 | 89.85646 | 8858 ft | 302 kts | 39° |
| 2026-04-26 05:05 | 23.79097 | 89.87206 | 8847 ft | 310 kts | 38° |
| 2026-04-26 05:05 | 23.80175 | 89.88237 | 8840 ft | 310 kts | 38° |
| 2026-04-26 05:05 | 23.82322 | 89.90274 | 8823 ft | 305 kts | 37° |
| 2026-04-26 05:06 | 23.83388 | 89.91283 | 8824 ft | 303 kts | 37° |
| 2026-04-26 05:06 | 23.84982 | 89.92792 | 8826 ft | 301 kts | 37° |
| 2026-04-26 05:06 | 23.87072 | 89.94772 | 8822 ft | 299 kts | 37° |
| 2026-04-26 05:06 | 23.88122 | 89.95766 | 8828 ft | 301 kts | 37° |
| 2026-04-26 05:07 | 23.89721 | 89.97280 | 8839 ft | 305 kts | 37° |
| 2026-04-26 05:07 | 23.91334 | 89.98809 | 8846 ft | 306 kts | 37° |
| 2026-04-26 05:07 | 23.92929 | 90.00322 | 8831 ft | 298 kts | 38° |
| 2026-04-26 05:07 | 23.94352 | 90.01897 | 8798 ft | 288 kts | 50° |
| 2026-04-26 05:08 | 23.95506 | 90.03625 | 8620 ft | 274 kts | 53° |
| 2026-04-26 05:08 | 23.96564 | 90.05291 | 8267 ft | 266 kts | 53° |
| 2026-04-26 05:08 | 23.97627 | 90.06922 | 7755 ft | 261 kts | 53° |
| 2026-04-26 05:08 | 23.98690 | 90.08521 | 7323 ft | 259 kts | 54° |
| 2026-04-26 05:09 | 23.99753 | 90.10106 | 7042 ft | 257 kts | 54° |
| 2026-04-26 05:09 | 24.00816 | 90.11690 | 6750 ft | 257 kts | 54° |
| 2026-04-26 05:09 | 24.01873 | 90.13265 | 6449 ft | 257 kts | 55° |
| 2026-04-26 05:09 | 24.02908 | 90.14803 | 6167 ft | 244 kts | 56° |
| 2026-04-26 05:10 | 24.03875 | 90.16241 | 5825 ft | 231 kts | 56° |
| 2026-04-26 05:10 | 24.04805 | 90.17623 | 5521 ft | 217 kts | 56° |
| 2026-04-26 05:10 | 24.05670 | 90.18909 | 5286 ft | 211 kts | 56° |
| 2026-04-26 05:10 | 24.06398 | 90.20285 | 5021 ft | 206 kts | 81° |
| 2026-04-26 05:11 | 24.06300 | 90.21780 | 4795 ft | 194 kts | 119° |
| 2026-04-26 05:11 | 24.05495 | 90.22895 | 4606 ft | 187 kts | 145° |
| 2026-04-26 05:11 | 24.04421 | 90.23735 | 4396 ft | 189 kts | 146° |
| 2026-04-26 05:11 | 24.03374 | 90.24572 | 4145 ft | 187 kts | 146° |
| 2026-04-26 05:12 | 24.02335 | 90.25405 | 3896 ft | 185 kts | 146° |
| 2026-04-26 05:12 | 24.01315 | 90.26219 | 3688 ft | 176 kts | 146° |
| 2026-04-26 05:12 | 24.00350 | 90.26990 | 3436 ft | 169 kts | 146° |
| 2026-04-26 05:12 | 23.99422 | 90.27731 | 3237 ft | 158 kts | 146° |
| 2026-04-26 05:13 | 23.98556 | 90.28422 | 3046 ft | 155 kts | 146° |
| 2026-04-26 05:13 | 23.97671 | 90.29130 | 2844 ft | 160 kts | 146° |
| 2026-04-26 05:13 | 23.96769 | 90.29851 | 2659 ft | 162 kts | 146° |
| 2026-04-26 05:13 | 23.95862 | 90.30575 | 2437 ft | 159 kts | 146° |
| 2026-04-26 05:14 | 23.95010 | 90.31256 | 2238 ft | 156 kts | 146° |
| 2026-04-26 05:14 | 23.94130 | 90.31958 | 2045 ft | 157 kts | 146° |
| 2026-04-26 05:14 | 23.93241 | 90.32666 | 1868 ft | 155 kts | 145° |
| 2026-04-26 05:14 | 23.92403 | 90.33338 | 1653 ft | 146 kts | 145° |
| 2026-04-26 05:15 | 23.91613 | 90.33969 | 1474 ft | 135 kts | 145° |
| 2026-04-26 05:15 | 23.90848 | 90.34579 | 1312 ft | 140 kts | 146° |
| 2026-04-26 05:15 | 23.90046 | 90.35218 | 1155 ft | 144 kts | 144° |
| 2026-04-26 05:15 | 23.89238 | 90.35864 | 989 ft | 142 kts | 145° |
| 2026-04-26 05:16 | 23.88456 | 90.36487 | 812 ft | 139 kts | 145° |
| 2026-04-26 05:16 | 23.87672 | 90.37113 | 593 ft | 139 kts | 143° |
| 2026-04-26 05:16 | 23.86905 | 90.37722 | 417 ft | 133 kts | 142° |
| 2026-04-26 05:16 | 23.86164 | 90.38318 | 215 ft | 135 kts | 141° |
| 2026-04-26 05:17 | 23.85377 | 90.38946 | 89 ft | 144 kts | 141° |
| 2026-04-26 05:17 | 23.84589 | 90.39581 | 42 ft | 129 kts | 146° |
| 2026-04-26 05:17 | 23.84034 | 90.40020 | 42 ft | 50 kts | 144° |
| 2026-04-26 05:17 | 23.83818 | 90.40203 | 44 ft | 33 kts | 133° |
| 2026-04-26 05:18 | 23.83720 | 90.40411 | 41 ft | 26 kts | 111° |
| 2026-04-26 05:18 | 23.83711 | 90.40606 | 41 ft | 26 kts | 75° |
| 2026-04-26 05:18 | 23.83800 | 90.40761 | 39 ft | 23 kts | 54° |
| 2026-04-26 05:18 | 23.83906 | 90.40786 | 41 ft | 18 kts | 324° |
| 2026-04-26 05:19 | 23.84008 | 90.40706 | 41 ft | 20 kts | 324° |
| 2026-04-26 05:19 | 23.84135 | 90.40606 | 41 ft | 23 kts | 323° |
| 2026-04-26 05:19 | 23.84263 | 90.40503 | 41 ft | 23 kts | 324° |
| 2026-04-26 05:19 | 23.84390 | 90.40403 | 41 ft | 23 kts | 324° |
| 2026-04-26 05:20 | 23.84519 | 90.40300 | 41 ft | 23 kts | 324° |
| 2026-04-26 05:20 | 23.84612 | 90.40234 | 41 ft | 12 kts | 346° |
| 2026-04-26 05:20 | 23.84662 | 90.40270 | 41 ft | 4 kts | 52° |
| 2026-04-26 05:20 | 23.84680 | 90.40297 | 41 ft | 5 kts | 53° |
| 2026-04-26 05:21 | 23.84693 | 90.40330 | 41 ft | 3 kts | 89° |
| 2026-04-26 05:21 | 23.84694 | 90.40353 | 41 ft | 4 kts | 83° |
| 2026-04-26 05:21 | 23.84709 | 90.40389 | 41 ft | 6 kts | 54° |
| 2026-04-26 05:21 | 23.84725 | 90.40413 | 41 ft | 2 kts | 54° |
| 2026-04-26 05:22 | 23.84730 | 90.40420 | 41 ft | 0 kts | 54° |